Ary, KY

10:06 PM EDT on July 23, 2014 (GMT -0400)
KKYJACKS3 Elev 994 ft | 37.41 °N, 83.42 °W | Change Station

Current weather conditions updated 1 minute ago

Rain
Rain
72.7 °F
Feels Like 71 °F
N
0.0
Wind Variable Wind from North
Gusts 0.0 mph

Tomorrow is forecast to be Much Cooler than today. A few morning showers.

Today
High -- | Low -- °F
--% Chance of Precip.
Yesterday
High -- | Low -- °F
Precip. -- in
6:29 AM 8:47 PM
Waning Crescent, 7% visible
Pressure 30.04 in
Visibility 1.5 miles
Clouds Mostly Cloudy 4000 ft
Mostly Cloudy 6000 ft
Overcast 7000 ft
Heat Index 71 °F
Dew Point 69 °F
Humidity 89%
Rainfall 0.02 in
Snow Depth Not available.
UV 0 out of 12
Pollen 3.30 out of 12
Air Quality Not available.
Flu Activity Not available.
SPECI KJKL 240202Z AUTO VRB03KT 1 1/2SM VCTS +RA BR BKN040 BKN060 OVC070 20/18 A3004 RMK AO2 LTG DSNT ALQDS P0010 T02000178

More Conditions Fewer Conditions

Pressure 30.04 in
Visibility 1.5 miles
Clouds Mostly Cloudy 4000 ft
Mostly Cloudy 6000 ft
Overcast 7000 ft
Heat Index 71 °F
Dew Point 69 °F
Humidity 89%
Rainfall 0.02 in
Snow Depth Not available.
UV 0 out of 12
Pollen 3.30 out of 12
Air Quality Not available.
Flu Activity Not available.
SPECI KJKL 240202Z AUTO VRB03KT 1 1/2SM VCTS +RA BR BKN040 BKN060 OVC070 20/18 A3004 RMK AO2 LTG DSNT ALQDS P0010 T02000178

More Conditions Fewer Conditions

10-Day Weather Forecast

Almanac

Astronomy

Jul. 23, 2014 Rise Set
Actual Time 6:29 AM EDT 8:47 PM EDT
Civil Twilight 6:00 AM EDT 9:17 PM EDT
Nautical Twilight 5:23 AM EDT 9:53 PM EDT
Astronomical Twilight 4:43 AM EDT 10:33 PM EDT
Moon 3:47 AM EDT (7/23) 6:16 PM EDT (7/23)
Length of Visible Light 15h 17m
Length of Day
14h 18m
Tomorrow will be 1m 32s shorter.
Waning Crescent, 7% of the Moon is Illuminated
Today
Waning Crescent
Jul 26
New
Aug 3
First Quarter
Aug 10
Full
Aug 17
Last Quarter

Today's Extremes

State Highs State Lows

Community

WunderPhotos

Upload Photos

1,736,843 photos uploaded!

Nearby

Snow Depth

Station Depth Elevation
No new snow has been reported.

Earthquake Activity

City Distance Mag. Time & Date
No recent earthquake activity has been reported nearby.
Minimum magnitude displayed is 2.5.

Coastal Water Temperatures

Place Temperature
No Stations Reporting

Nearby Weather Stations

Station Location Temp. Heat Index Dew Point Humidity Wind Precip. Elev Updated Type
Talbert, KY 72.7 °F 71 °F 69 °F 89% North  at  0.0 mph 0.00 in / hr 994 ft 10:05 PM EDT Normal

Show More Stations Show Fewer Stations